sensor_id;sensor_type;location;lat;lon;timestamp;pressure;altitude;pressure_sealevel;temperature;humidity
51067;BME280;37112;45.892;-123.962;2023-06-26T00:00:50;101947.67;;;15.96;73.42
51067;BME280;37112;45.892;-123.962;2023-06-26T00:03:32;101946.80;;;15.88;74.16
51067;BME280;37112;45.892;-123.962;2023-06-26T00:06:03;101941.29;;;15.77;74.59
51067;BME280;37112;45.892;-123.962;2023-06-26T00:08:35;101942.50;;;15.76;75.09
51067;BME280;37112;45.892;-123.962;2023-06-26T00:11:06;101944.05;;;15.79;75.05
51067;BME280;37112;45.892;-123.962;2023-06-26T00:13:38;101946.75;;;15.84;75.03
51067;BME280;37112;45.892;-123.962;2023-06-26T00:16:10;101942.86;;;15.85;75.03
51067;BME280;37112;45.892;-123.962;2023-06-26T00:19:01;101943.77;;;15.83;74.80
51067;BME280;37112;45.892;-123.962;2023-06-26T00:21:33;101939.97;;;15.81;75.11
51067;BME280;37112;45.892;-123.962;2023-06-26T00:24:04;101938.80;;;15.87;75.36
51067;BME280;37112;45.892;-123.962;2023-06-26T00:26:35;101940.52;;;15.81;75.03
51067;BME280;37112;45.892;-123.962;2023-06-26T00:29:06;101938.30;;;15.74;75.30
51067;BME280;37112;45.892;-123.962;2023-06-26T00:31:38;101938.35;;;15.71;75.77
51067;BME280;37112;45.892;-123.962;2023-06-26T00:34:09;101938.56;;;15.76;75.77
51067;BME280;37112;45.892;-123.962;2023-06-26T00:37:00;101938.05;;;15.76;75.58
51067;BME280;37112;45.892;-123.962;2023-06-26T00:39:31;101939.44;;;15.73;75.88
51067;BME280;37112;45.892;-123.962;2023-06-26T00:41:52;101940.83;;;15.64;75.78
51067;BME280;37112;45.892;-123.962;2023-06-26T00:44:24;101937.44;;;15.56;76.22
51067;BME280;37112;45.892;-123.962;2023-06-26T00:46:56;101931.21;;;15.47;76.19
51067;BME280;37112;45.892;-123.962;2023-06-26T00:49:20;101930.48;;;15.40;76.44
51067;BME280;37112;45.892;-123.962;2023-06-26T00:51:51;101928.75;;;15.30;76.79
51067;BME280;37112;45.892;-123.962;2023-06-26T00:54:24;101931.78;;;15.23;77.25
51067;BME280;37112;45.892;-123.962;2023-06-26T00:56:58;101928.27;;;15.17;77.60
51067;BME280;37112;45.892;-123.962;2023-06-26T00:59:28;101929.55;;;15.11;77.53
51067;BME280;37112;45.892;-123.962;2023-06-26T01:04:50;101933.52;;;15.08;78.04
51067;BME280;37112;45.892;-123.962;2023-06-26T01:07:22;101929.01;;;15.14;78.17
51067;BME280;37112;45.892;-123.962;2023-06-26T01:09:45;101933.02;;;15.18;78.09
51067;BME280;37112;45.892;-123.962;2023-06-26T01:12:05;101929.10;;;15.18;78.10
51067;BME280;37112;45.892;-123.962;2023-06-26T01:14:38;101928.19;;;15.23;78.30
51067;BME280;37112;45.892;-123.962;2023-06-26T01:17:12;101925.70;;;15.25;77.67
51067;BME280;37112;45.892;-123.962;2023-06-26T01:19:48;101925.17;;;15.23;77.46
51067;BME280;37112;45.892;-123.962;2023-06-26T01:22:27;101927.35;;;15.27;77.75
51067;BME280;37112;45.892;-123.962;2023-06-26T01:25:08;101928.61;;;15.30;77.59
51067;BME280;37112;45.892;-123.962;2023-06-26T01:27:42;101925.20;;;15.30;77.40
51067;BME280;37112;45.892;-123.962;2023-06-26T01:30:15;101925.67;;;15.29;77.48
51067;BME280;37112;45.892;-123.962;2023-06-26T01:32:47;101925.14;;;15.29;77.41
51067;BME280;37112;45.892;-123.962;2023-06-26T01:35:20;101925.59;;;15.30;77.50
51067;BME280;37112;45.892;-123.962;2023-06-26T01:37:44;101919.85;;;15.32;77.72
51067;BME280;37112;45.892;-123.962;2023-06-26T01:40:15;101924.39;;;15.29;77.32
51067;BME280;37112;45.892;-123.962;2023-06-26T01:42:46;101928.25;;;15.12;77.04
51067;BME280;37112;45.892;-123.962;2023-06-26T01:45:23;101929.08;;;15.05;77.42
51067;BME280;37112;45.892;-123.962;2023-06-26T01:47:54;101931.98;;;15.07;77.87
51067;BME280;37112;45.892;-123.962;2023-06-26T01:50:21;101927.40;;;15.06;77.69
51067;BME280;37112;45.892;-123.962;2023-06-26T01:52:58;101924.96;;;15.02;77.62
51067;BME280;37112;45.892;-123.962;2023-06-26T01:55:24;101927.30;;;15.02;77.83
51067;BME280;37112;45.892;-123.962;2023-06-26T01:57:58;101922.77;;;14.98;77.56
51067;BME280;37112;45.892;-123.962;2023-06-26T02:00:31;101918.30;;;14.98;77.85
51067;BME280;37112;45.892;-123.962;2023-06-26T02:03:02;101922.57;;;14.98;77.95
51067;BME280;37112;45.892;-123.962;2023-06-26T02:05:25;101917.25;;;14.95;78.09
51067;BME280;37112;45.892;-123.962;2023-06-26T02:07:45;101918.06;;;14.93;78.15
51067;BME280;37112;45.892;-123.962;2023-06-26T02:10:16;101915.61;;;14.95;78.27
51067;BME280;37112;45.892;-123.962;2023-06-26T02:12:47;101916.41;;;14.93;78.26
51067;BME280;37112;45.892;-123.962;2023-06-26T02:15:17;101919.53;;;14.92;78.13
51067;BME280;37112;45.892;-123.962;2023-06-26T02:17:48;101919.68;;;14.93;78.34
51067;BME280;37112;45.892;-123.962;2023-06-26T02:20:19;101920.10;;;14.89;78.21
51067;BME280;37112;45.892;-123.962;2023-06-26T02:22:50;101916.81;;;14.88;78.45
51067;BME280;37112;45.892;-123.962;2023-06-26T02:25:21;101918.20;;;14.88;78.36
51067;BME280;37112;45.892;-123.962;2023-06-26T02:27:41;101920.27;;;14.87;78.34
51067;BME280;37112;45.892;-123.962;2023-06-26T02:30:13;101918.59;;;14.83;78.20
51067;BME280;37112;45.892;-123.962;2023-06-26T02:32:44;101916.21;;;14.78;78.45
51067;BME280;37112;45.892;-123.962;2023-06-26T02:35:15;101914.59;;;14.75;78.54
51067;BME280;37112;45.892;-123.962;2023-06-26T02:37:39;101913.66;;;14.75;78.63
51067;BME280;37112;45.892;-123.962;2023-06-26T02:40:00;101910.81;;;14.78;79.12
51067;BME280;37112;45.892;-123.962;2023-06-26T02:42:25;101915.27;;;14.79;79.11
51067;BME280;37112;45.892;-123.962;2023-06-26T02:44:56;101919.15;;;14.80;79.23
51067;BME280;37112;45.892;-123.962;2023-06-26T02:47:28;101920.53;;;14.75;79.51
51067;BME280;37112;45.892;-123.962;2023-06-26T02:49:49;101916.46;;;14.68;79.33
51067;BME280;37112;45.892;-123.962;2023-06-26T02:52:13;101922.98;;;14.65;79.53
51067;BME280;37112;45.892;-123.962;2023-06-26T02:54:44;101922.06;;;14.57;79.28
51067;BME280;37112;45.892;-123.962;2023-06-26T02:57:15;101921.11;;;14.55;79.72
51067;BME280;37112;45.892;-123.962;2023-06-26T02:59:46;101920.23;;;14.55;80.05
51067;BME280;37112;45.892;-123.962;2023-06-26T03:02:11;101924.17;;;14.52;79.80
51067;BME280;37112;45.892;-123.962;2023-06-26T03:04:31;101923.73;;;14.51;80.17
51067;BME280;37112;45.892;-123.962;2023-06-26T03:07:06;101921.50;;;14.52;80.20
51067;BME280;37112;45.892;-123.962;2023-06-26T03:09:37;101923.91;;;14.53;80.29
51067;BME280;37112;45.892;-123.962;2023-06-26T03:12:08;101926.30;;;14.50;80.08
51067;BME280;37112;45.892;-123.962;2023-06-26T03:14:40;101922.55;;;14.49;80.29
51067;BME280;37112;45.892;-123.962;2023-06-26T03:17:14;101923.64;;;14.49;80.44
51067;BME280;37112;45.892;-123.962;2023-06-26T03:19:45;101923.52;;;14.49;80.53
51067;BME280;37112;45.892;-123.962;2023-06-26T03:22:19;101924.64;;;14.48;80.52
51067;BME280;37112;45.892;-123.962;2023-06-26T03:24:51;101922.83;;;14.45;80.48
51067;BME280;37112;45.892;-123.962;2023-06-26T03:27:22;101921.08;;;14.44;80.71
51067;BME280;37112;45.892;-123.962;2023-06-26T03:29:56;101928.00;;;14.42;80.95
51067;BME280;37112;45.892;-123.962;2023-06-26T03:32:27;101928.98;;;14.32;80.69
51067;BME280;37112;45.892;-123.962;2023-06-26T03:34:52;101927.05;;;14.26;80.84
51067;BME280;37112;45.892;-123.962;2023-06-26T03:37:15;101928.27;;;14.24;81.25
51067;BME280;37112;45.892;-123.962;2023-06-26T03:39:46;101927.23;;;14.18;81.18
51067;BME280;37112;45.892;-123.962;2023-06-26T03:42:18;101922.45;;;14.12;81.11
51067;BME280;37112;45.892;-123.962;2023-06-26T03:44:49;101924.90;;;14.10;81.28
51067;BME280;37112;45.892;-123.962;2023-06-26T03:47:21;101924.98;;;14.08;81.38
51067;BME280;37112;45.892;-123.962;2023-06-26T03:49:52;101921.58;;;14.06;81.43
51067;BME280;37112;45.892;-123.962;2023-06-26T03:52:22;101923.28;;;14.04;81.61
51067;BME280;37112;45.892;-123.962;2023-06-26T03:54:54;101927.99;;;14.00;81.58
51067;BME280;37112;45.892;-123.962;2023-06-26T03:57:18;101926.43;;;13.96;81.78
51067;BME280;37112;45.892;-123.962;2023-06-26T03:59:50;101931.48;;;13.96;81.90
51067;BME280;37112;45.892;-123.962;2023-06-26T04:02:24;101933.67;;;13.98;82.15
51067;BME280;37112;45.892;-123.962;2023-06-26T04:04:54;101928.86;;;13.98;82.04
51067;BME280;37112;45.892;-123.962;2023-06-26T04:10:11;101934.86;;;13.93;82.15
51067;BME280;37112;45.892;-123.962;2023-06-26T04:12:43;101932.80;;;13.91;82.26
51067;BME280;37112;45.892;-123.962;2023-06-26T04:15:25;101934.95;;;13.89;82.16
51067;BME280;37112;45.892;-123.962;2023-06-26T04:17:57;101937.50;;;13.85;82.28
51067;BME280;37112;45.892;-123.962;2023-06-26T04:21:06;101933.77;;;13.79;82.26
51067;BME280;37112;45.892;-123.962;2023-06-26T04:23:28;101932.63;;;13.78;82.63
51067;BME280;37112;45.892;-123.962;2023-06-26T04:26:13;101931.71;;;13.78;82.88
51067;BME280;37112;45.892;-123.962;2023-06-26T04:28:44;101936.27;;;13.76;82.81
51067;BME280;37112;45.892;-123.962;2023-06-26T04:31:09;101938.14;;;13.72;82.83
51067;BME280;37112;45.892;-123.962;2023-06-26T04:33:43;101937.47;;;13.68;82.87
51067;BME280;37112;45.892;-123.962;2023-06-26T04:36:26;101941.70;;;13.69;83.10
51067;BME280;37112;45.892;-123.962;2023-06-26T04:39:08;101945.84;;;13.69;83.07
51067;BME280;37112;45.892;-123.962;2023-06-26T04:41:41;101942.85;;;13.68;83.17
51067;BME280;37112;45.892;-123.962;2023-06-26T04:44:22;101947.00;;;13.64;83.13
51067;BME280;37112;45.892;-123.962;2023-06-26T04:46:55;101947.45;;;13.62;83.22
51067;BME280;37112;45.892;-123.962;2023-06-26T04:49:41;101942.73;;;13.61;83.22
51067;BME280;37112;45.892;-123.962;2023-06-26T04:52:15;101946.06;;;13.62;83.45
51067;BME280;37112;45.892;-123.962;2023-06-26T04:57:15;101950.02;;;13.61;83.39
51067;BME280;37112;45.892;-123.962;2023-06-26T04:59:51;101952.98;;;13.59;83.40
51067;BME280;37112;45.892;-123.962;2023-06-26T05:02:38;101951.92;;;13.59;83.55
51067;BME280;37112;45.892;-123.962;2023-06-26T05:05:29;101951.64;;;13.61;83.63
51067;BME280;37112;45.892;-123.962;2023-06-26T05:08:20;101955.13;;;13.63;83.82
51067;BME280;37112;45.892;-123.962;2023-06-26T05:10:52;101952.38;;;13.64;83.70
51067;BME280;37112;45.892;-123.962;2023-06-26T05:13:50;101956.49;;;13.66;83.89
51067;BME280;37112;45.892;-123.962;2023-06-26T05:16:22;101956.53;;;13.65;83.79
51067;BME280;37112;45.892;-123.962;2023-06-26T05:18:53;101954.96;;;13.65;83.63
51067;BME280;37112;45.892;-123.962;2023-06-26T05:21:25;101956.52;;;13.63;83.64
51067;BME280;37112;45.892;-123.962;2023-06-26T05:23:58;101957.65;;;13.62;83.63
51067;BME280;37112;45.892;-123.962;2023-06-26T05:26:31;101955.73;;;13.61;83.71
51067;BME280;37112;45.892;-123.962;2023-06-26T05:28:51;101952.68;;;13.62;83.82
51067;BME280;37112;45.892;-123.962;2023-06-26T05:31:24;101956.27;;;13.61;83.72
51067;BME280;37112;45.892;-123.962;2023-06-26T05:33:57;101960.80;;;13.60;83.81
51067;BME280;37112;45.892;-123.962;2023-06-26T05:36:26;101959.08;;;13.59;83.91
51067;BME280;37112;45.892;-123.962;2023-06-26T05:39:00;101960.73;;;13.58;84.12
51067;BME280;37112;45.892;-123.962;2023-06-26T05:41:32;101958.23;;;13.61;84.40
51067;BME280;37112;45.892;-123.962;2023-06-26T05:44:04;101961.16;;;13.66;84.58
51067;BME280;37112;45.892;-123.962;2023-06-26T05:46:35;101958.13;;;13.69;84.71
51067;BME280;37112;45.892;-123.962;2023-06-26T05:49:07;101963.86;;;13.72;84.61
51067;BME280;37112;45.892;-123.962;2023-06-26T05:51:41;101964.55;;;13.72;84.64
51067;BME280;37112;45.892;-123.962;2023-06-26T05:54:14;101959.94;;;13.72;84.39
51067;BME280;37112;45.892;-123.962;2023-06-26T05:56:43;101958.77;;;13.70;84.46
51067;BME280;37112;45.892;-123.962;2023-06-26T05:59:16;101961.48;;;13.73;84.79
51067;BME280;37112;45.892;-123.962;2023-06-26T06:01:51;101958.98;;;13.76;84.88
51067;BME280;37112;45.892;-123.962;2023-06-26T06:04:42;101959.10;;;13.76;84.70
51067;BME280;37112;45.892;-123.962;2023-06-26T06:07:13;101960.42;;;13.75;84.54
51067;BME280;37112;45.892;-123.962;2023-06-26T06:09:48;101958.84;;;13.75;84.58
51067;BME280;37112;45.892;-123.962;2023-06-26T06:12:19;101964.64;;;13.74;84.66
51067;BME280;37112;45.892;-123.962;2023-06-26T06:14:51;101962.68;;;13.76;84.88
51067;BME280;37112;45.892;-123.962;2023-06-26T06:17:22;101959.58;;;13.78;85.04
51067;BME280;37112;45.892;-123.962;2023-06-26T06:19:54;101963.70;;;13.77;84.71
51067;BME280;37112;45.892;-123.962;2023-06-26T06:22:26;101959.70;;;13.75;84.73
51067;BME280;37112;45.892;-123.962;2023-06-26T06:24:57;101961.27;;;13.76;84.74
51067;BME280;37112;45.892;-123.962;2023-06-26T06:27:18;101963.36;;;13.74;84.60
51067;BME280;37112;45.892;-123.962;2023-06-26T06:29:50;101966.77;;;13.74;84.75
51067;BME280;37112;45.892;-123.962;2023-06-26T06:32:21;101960.36;;;13.71;84.68
51067;BME280;37112;45.892;-123.962;2023-06-26T06:37:45;101959.45;;;13.62;84.72
51067;BME280;37112;45.892;-123.962;2023-06-26T06:40:17;101956.94;;;13.62;85.04
51067;BME280;37112;45.892;-123.962;2023-06-26T06:42:48;101957.91;;;13.60;85.06
51067;BME280;37112;45.892;-123.962;2023-06-26T06:45:19;101959.85;;;13.61;85.42
51067;BME280;37112;45.892;-123.962;2023-06-26T06:47:51;101958.17;;;13.62;85.39
51067;BME280;37112;45.892;-123.962;2023-06-26T06:50:23;101957.18;;;13.61;85.15
51067;BME280;37112;45.892;-123.962;2023-06-26T06:52:55;101955.66;;;13.59;85.22
51067;BME280;37112;45.892;-123.962;2023-06-26T06:55:15;101955.47;;;13.60;85.54
51067;BME280;37112;45.892;-123.962;2023-06-26T06:57:46;101952.81;;;13.59;85.44
51067;BME280;37112;45.892;-123.962;2023-06-26T07:00:10;101957.27;;;13.59;85.53
51067;BME280;37112;45.892;-123.962;2023-06-26T07:02:44;101957.08;;;13.57;85.38
51067;BME280;37112;45.892;-123.962;2023-06-26T07:05:18;101956.91;;;13.54;85.15
51067;BME280;37112;45.892;-123.962;2023-06-26T07:07:49;101959.45;;;13.50;85.19
51067;BME280;37112;45.892;-123.962;2023-06-26T07:10:13;101957.80;;;13.51;85.57
51067;BME280;37112;45.892;-123.962;2023-06-26T07:12:45;101954.44;;;13.53;85.79
51067;BME280;37112;45.892;-123.962;2023-06-26T07:15:16;101954.98;;;13.56;85.97
51067;BME280;37112;45.892;-123.962;2023-06-26T07:17:46;101951.16;;;13.60;86.15
51067;BME280;37112;45.892;-123.962;2023-06-26T07:20:18;101951.76;;;13.62;85.92
51067;BME280;37112;45.892;-123.962;2023-06-26T07:22:50;101950.06;;;13.61;85.76
51067;BME280;37112;45.892;-123.962;2023-06-26T07:25:10;101946.52;;;13.60;85.88
51067;BME280;37112;45.892;-123.962;2023-06-26T07:27:43;101945.64;;;13.60;85.78
51067;BME280;37112;45.892;-123.962;2023-06-26T07:30:15;101942.14;;;13.59;85.72
51067;BME280;37112;45.892;-123.962;2023-06-26T07:32:46;101946.85;;;13.58;85.87
51067;BME280;37112;45.892;-123.962;2023-06-26T07:35:18;101948.00;;;13.57;85.80
51067;BME280;37112;45.892;-123.962;2023-06-26T07:37:50;101946.52;;;13.54;85.69
51067;BME280;37112;45.892;-123.962;2023-06-26T07:40:14;101946.20;;;13.54;85.78
51067;BME280;37112;45.892;-123.962;2023-06-26T07:42:35;101947.20;;;13.52;85.60
51067;BME280;37112;45.892;-123.962;2023-06-26T07:45:09;101944.17;;;13.46;85.38
51067;BME280;37112;45.892;-123.962;2023-06-26T07:47:41;101946.21;;;13.45;85.63
51067;BME280;37112;45.892;-123.962;2023-06-26T07:50:13;101943.75;;;13.44;85.76
51067;BME280;37112;45.892;-123.962;2023-06-26T07:52:48;101940.19;;;13.44;86.01
51067;BME280;37112;45.892;-123.962;2023-06-26T07:55:19;101937.98;;;13.45;86.16
51067;BME280;37112;45.892;-123.962;2023-06-26T07:57:51;101932.91;;;13.46;86.22
51067;BME280;37112;45.892;-123.962;2023-06-26T08:00:23;101934.44;;;13.48;86.36
51067;BME280;37112;45.892;-123.962;2023-06-26T08:02:56;101931.40;;;13.51;86.51
51067;BME280;37112;45.892;-123.962;2023-06-26T08:05:18;101931.09;;;13.53;86.42
51067;BME280;37112;45.892;-123.962;2023-06-26T08:07:49;101929.55;;;13.52;86.25
51067;BME280;37112;45.892;-123.962;2023-06-26T08:10:21;101924.30;;;13.53;86.41
51067;BME280;37112;45.892;-123.962;2023-06-26T08:12:52;101924.77;;;13.54;86.45
51067;BME280;37112;45.892;-123.962;2023-06-26T08:15:23;101923.23;;;13.56;86.58
51067;BME280;37112;45.892;-123.962;2023-06-26T08:17:55;101923.92;;;13.56;86.48
51067;BME280;37112;45.892;-123.962;2023-06-26T08:20:27;101920.86;;;13.57;86.48
51067;BME280;37112;45.892;-123.962;2023-06-26T08:22:59;101921.09;;;13.58;86.61
51067;BME280;37112;45.892;-123.962;2023-06-26T08:25:29;101921.02;;;13.60;86.60
51067;BME280;37112;45.892;-123.962;2023-06-26T08:27:54;101920.73;;;13.62;86.55
51067;BME280;37112;45.892;-123.962;2023-06-26T08:30:26;101924.31;;;13.61;86.40
51067;BME280;37112;45.892;-123.962;2023-06-26T08:32:57;101924.27;;;13.62;86.52
51067;BME280;37112;45.892;-123.962;2023-06-26T08:35:29;101919.71;;;13.64;86.58
51067;BME280;37112;45.892;-123.962;2023-06-26T08:38:00;101916.84;;;13.64;86.56
51067;BME280;37112;45.892;-123.962;2023-06-26T08:40:34;101915.01;;;13.65;86.49
51067;BME280;37112;45.892;-123.962;2023-06-26T08:43:06;101918.95;;;13.65;86.41
51067;BME280;37112;45.892;-123.962;2023-06-26T08:45:38;101916.31;;;13.64;86.42
51067;BME280;37112;45.892;-123.962;2023-06-26T08:48:10;101912.48;;;13.63;86.46
51067;BME280;37112;45.892;-123.962;2023-06-26T08:50:41;101911.11;;;13.62;86.64
51067;BME280;37112;45.892;-123.962;2023-06-26T08:53:21;101914.25;;;13.63;86.66
51067;BME280;37112;45.892;-123.962;2023-06-26T08:55:44;101914.59;;;13.63;86.64
51067;BME280;37112;45.892;-123.962;2023-06-26T08:58:15;101915.34;;;13.62;86.64
51067;BME280;37112;45.892;-123.962;2023-06-26T09:00:47;101913.45;;;13.61;86.74
51067;BME280;37112;45.892;-123.962;2023-06-26T09:03:19;101914.20;;;13.60;86.82
51067;BME280;37112;45.892;-123.962;2023-06-26T09:05:51;101911.27;;;13.59;86.59
51067;BME280;37112;45.892;-123.962;2023-06-26T09:08:22;101909.02;;;13.58;86.53
51067;BME280;37112;45.892;-123.962;2023-06-26T09:10:54;101908.16;;;13.57;86.61
51067;BME280;37112;45.892;-123.962;2023-06-26T09:13:26;101905.45;;;13.58;86.74
51067;BME280;37112;45.892;-123.962;2023-06-26T09:16:03;101904.92;;;13.58;86.86
51067;BME280;37112;45.892;-123.962;2023-06-26T09:18:37;101903.75;;;13.59;87.04
51067;BME280;37112;45.892;-123.962;2023-06-26T09:21:10;101906.50;;;13.61;87.00
51067;BME280;37112;45.892;-123.962;2023-06-26T09:23:32;101909.69;;;13.61;87.00
51067;BME280;37112;45.892;-123.962;2023-06-26T09:26:07;101905.95;;;13.61;86.97
51067;BME280;37112;45.892;-123.962;2023-06-26T09:28:39;101905.27;;;13.60;86.98
51067;BME280;37112;45.892;-123.962;2023-06-26T09:31:13;101909.21;;;13.60;87.06
51067;BME280;37112;45.892;-123.962;2023-06-26T09:34:03;101901.65;;;13.61;87.27
51067;BME280;37112;45.892;-123.962;2023-06-26T09:36:35;101897.84;;;13.63;87.30
51067;BME280;37112;45.892;-123.962;2023-06-26T09:39:20;101896.98;;;13.62;87.25
51067;BME280;37112;45.892;-123.962;2023-06-26T09:41:52;101892.69;;;13.59;87.27
51067;BME280;37112;45.892;-123.962;2023-06-26T09:44:25;101889.17;;;13.58;87.34
51067;BME280;37112;45.892;-123.962;2023-06-26T09:46:57;101891.81;;;13.59;87.36
51067;BME280;37112;45.892;-123.962;2023-06-26T09:49:29;101893.02;;;13.59;87.32
51067;BME280;37112;45.892;-123.962;2023-06-26T09:52:02;101894.39;;;13.60;87.21
51067;BME280;37112;45.892;-123.962;2023-06-26T09:54:34;101894.56;;;13.60;87.30
51067;BME280;37112;45.892;-123.962;2023-06-26T09:57:11;101890.61;;;13.61;87.47
51067;BME280;37112;45.892;-123.962;2023-06-26T09:59:37;101892.31;;;13.59;87.25
51067;BME280;37112;45.892;-123.962;2023-06-26T10:02:09;101894.94;;;13.57;87.23
51067;BME280;37112;45.892;-123.962;2023-06-26T10:04:43;101888.40;;;13.56;87.36
51067;BME280;37112;45.892;-123.962;2023-06-26T10:07:15;101892.11;;;13.54;87.30
51067;BME280;37112;45.892;-123.962;2023-06-26T10:09:48;101890.52;;;13.54;87.53
51067;BME280;37112;45.892;-123.962;2023-06-26T10:12:25;101892.30;;;13.54;87.75
51067;BME280;37112;45.892;-123.962;2023-06-26T10:15:04;101891.20;;;13.54;87.78
51067;BME280;37112;45.892;-123.962;2023-06-26T10:17:39;101889.80;;;13.54;87.84
51067;BME280;37112;45.892;-123.962;2023-06-26T10:20:12;101889.61;;;13.54;87.76
51067;BME280;37112;45.892;-123.962;2023-06-26T10:22:46;101886.59;;;13.54;87.81
51067;BME280;37112;45.892;-123.962;2023-06-26T10:25:16;101888.94;;;13.54;87.82
51067;BME280;37112;45.892;-123.962;2023-06-26T10:27:50;101887.35;;;13.53;87.90
51067;BME280;37112;45.892;-123.962;2023-06-26T10:30:28;101886.81;;;13.53;88.01
51067;BME280;37112;45.892;-123.962;2023-06-26T10:33:01;101883.58;;;13.54;88.06
51067;BME280;37112;45.892;-123.962;2023-06-26T10:35:33;101885.70;;;13.54;88.05
51067;BME280;37112;45.892;-123.962;2023-06-26T10:38:05;101885.42;;;13.53;87.92
51067;BME280;37112;45.892;-123.962;2023-06-26T10:40:44;101884.83;;;13.51;87.70
51067;BME280;37112;45.892;-123.962;2023-06-26T10:43:16;101878.73;;;13.48;87.67
51067;BME280;37112;45.892;-123.962;2023-06-26T10:45:49;101875.23;;;13.47;87.93
51067;BME280;37112;45.892;-123.962;2023-06-26T10:48:23;101876.75;;;13.49;88.12
51067;BME280;37112;45.892;-123.962;2023-06-26T10:50:59;101876.73;;;13.49;88.16
51067;BME280;37112;45.892;-123.962;2023-06-26T10:53:46;101874.67;;;13.50;88.36
51067;BME280;37112;45.892;-123.962;2023-06-26T10:56:20;101874.55;;;13.52;88.48
51067;BME280;37112;45.892;-123.962;2023-06-26T10:58:51;101876.39;;;13.54;88.54
51067;BME280;37112;45.892;-123.962;2023-06-26T11:01:23;101870.86;;;13.57;88.55
51067;BME280;37112;45.892;-123.962;2023-06-26T11:04:10;101871.27;;;13.59;88.61
51067;BME280;37112;45.892;-123.962;2023-06-26T11:06:41;101870.42;;;13.58;88.51
51067;BME280;37112;45.892;-123.962;2023-06-26T11:09:24;101874.66;;;13.59;88.53
51067;BME280;37112;45.892;-123.962;2023-06-26T11:12:02;101873.91;;;13.60;88.46
51067;BME280;37112;45.892;-123.962;2023-06-26T11:14:35;101871.82;;;13.59;88.27
51067;BME280;37112;45.892;-123.962;2023-06-26T11:17:07;101871.98;;;13.59;88.43
51067;BME280;37112;45.892;-123.962;2023-06-26T11:19:45;101869.55;;;13.58;88.40
51067;BME280;37112;45.892;-123.962;2023-06-26T11:22:18;101868.60;;;13.59;88.47
51067;BME280;37112;45.892;-123.962;2023-06-26T11:24:50;101863.67;;;13.61;88.65
51067;BME280;37112;45.892;-123.962;2023-06-26T11:27:24;101863.20;;;13.63;88.73
51067;BME280;37112;45.892;-123.962;2023-06-26T11:29:54;101868.45;;;13.64;88.67
51067;BME280;37112;45.892;-123.962;2023-06-26T11:32:28;101868.13;;;13.64;88.56
51067;BME280;37112;45.892;-123.962;2023-06-26T11:34:59;101868.12;;;13.61;88.41
51067;BME280;37112;45.892;-123.962;2023-06-26T11:37:13;101865.69;;;13.57;88.25
51067;BME280;37112;45.892;-123.962;2023-06-26T11:39:48;101869.59;;;13.52;87.88
51067;BME280;37112;45.892;-123.962;2023-06-26T11:42:21;101866.60;;;13.48;88.07
51067;BME280;37112;45.892;-123.962;2023-06-26T11:44:54;101872.99;;;13.46;88.04
51067;BME280;37112;45.892;-123.962;2023-06-26T11:47:26;101871.14;;;13.41;88.02
51067;BME280;37112;45.892;-123.962;2023-06-26T11:49:58;101873.96;;;13.33;87.65
51067;BME280;37112;45.892;-123.962;2023-06-26T11:52:29;101872.60;;;13.23;87.53
51067;BME280;37112;45.892;-123.962;2023-06-26T11:55:00;101881.83;;;13.15;87.68
51067;BME280;37112;45.892;-123.962;2023-06-26T11:57:33;101879.92;;;13.10;88.15
51067;BME280;37112;45.892;-123.962;2023-06-26T12:00:16;101882.41;;;13.10;88.51
51067;BME280;37112;45.892;-123.962;2023-06-26T12:02:48;101886.80;;;13.11;88.80
51067;BME280;37112;45.892;-123.962;2023-06-26T12:05:21;101884.77;;;13.13;89.04
51067;BME280;37112;45.892;-123.962;2023-06-26T12:07:53;101886.05;;;13.16;89.05
51067;BME280;37112;45.892;-123.962;2023-06-26T12:10:24;101885.14;;;13.18;89.25
51067;BME280;37112;45.892;-123.962;2023-06-26T12:12:55;101886.23;;;13.22;89.22
51067;BME280;37112;45.892;-123.962;2023-06-26T12:15:26;101888.05;;;13.24;89.18
51067;BME280;37112;45.892;-123.962;2023-06-26T12:17:58;101888.33;;;13.25;89.46
51067;BME280;37112;45.892;-123.962;2023-06-26T12:20:30;101887.52;;;13.27;89.36
51067;BME280;37112;45.892;-123.962;2023-06-26T12:23:01;101888.42;;;13.27;89.26
51067;BME280;37112;45.892;-123.962;2023-06-26T12:25:34;101887.55;;;13.27;89.31
51067;BME280;37112;45.892;-123.962;2023-06-26T12:28:17;101886.36;;;13.26;89.19
51067;BME280;37112;45.892;-123.962;2023-06-26T12:31:15;101886.93;;;13.22;88.96
51067;BME280;37112;45.892;-123.962;2023-06-26T12:33:47;101888.28;;;13.17;88.89
51067;BME280;37112;45.892;-123.962;2023-06-26T12:36:18;101885.30;;;13.16;89.15
51067;BME280;37112;45.892;-123.962;2023-06-26T12:38:52;101889.14;;;13.18;89.24
51067;BME280;37112;45.892;-123.962;2023-06-26T12:41:26;101888.77;;;13.18;89.30
51067;BME280;37112;45.892;-123.962;2023-06-26T12:43:55;101888.66;;;13.20;89.55
51067;BME280;37112;45.892;-123.962;2023-06-26T12:46:19;101887.70;;;13.21;89.63
51067;BME280;37112;45.892;-123.962;2023-06-26T12:48:50;101890.61;;;13.23;89.76
51067;BME280;37112;45.892;-123.962;2023-06-26T12:51:26;101890.27;;;13.26;89.93
51067;BME280;37112;45.892;-123.962;2023-06-26T12:53:57;101890.79;;;13.29;90.09
51067;BME280;37112;45.892;-123.962;2023-06-26T12:56:19;101888.61;;;13.33;90.34